Time;durP1;ratioP1;P1;durP2;ratioP2;P2;SDS_P1;SDS_P2;PMS_P1;PMS_P2;Temp;Humidity;BMP_temperature;BMP_pressure;BME280_temperature;BME280_humidity;BME280_pressure;Samples;Min_cycle;Max_cycle;Signal;HPM_P1;HPM_P2
2021/01/16 00:01:06;;;;;;;6.18;1.75;;;-0.50;99.90;;;;;;5003133;28;20171;-81
2021/01/16 00:03:32;;;;;;;3.70;1.75;;;-0.50;99.90;;;;;;5009448;28;20222;-80
2021/01/16 00:06:00;;;;;;;2.23;1.57;;;-0.30;99.90;;;;;;4994640;28;20187;-81
2021/01/16 00:08:27;;;;;;;3.30;1.15;;;-0.10;99.90;;;;;;4990050;28;20426;-80
2021/01/16 00:11:09;;;;;;;2.92;1.63;;;-0.30;99.90;;;;;;4994432;28;20174;-80
2021/01/16 00:13:35;;;;;;;3.10;1.73;;;-0.50;99.90;;;;;;5003037;28;20162;-82
2021/01/16 00:16:02;;;;;;;4.90;2.67;;;-0.50;99.90;;;;;;4972970;28;20222;-81
2021/01/16 00:18:31;;;;;;;1.45;1.25;;;-0.40;99.90;;;;;;5004378;28;20542;-79
2021/01/16 00:20:58;;;;;;;1.80;1.38;;;-0.50;99.90;;;;;;5003777;28;20171;-80
2021/01/16 00:23:28;;;;;;;1.85;1.42;;;-0.50;99.90;;;;;;5008495;28;20205;-80
2021/01/16 00:25:57;;;;;;;3.75;1.35;;;-0.60;99.90;;;;;;4988419;28;20206;-77
2021/01/16 00:28:25;;;;;;;8.40;3.00;;;-0.60;99.90;;;;;;5002703;28;20784;-81
2021/01/16 00:30:52;;;;;;;2.13;1.60;;;-0.40;99.90;;;;;;5003757;28;20617;-85
2021/01/16 00:33:25;;;;;;;2.92;1.65;;;-0.50;99.90;;;;;;4997546;28;20575;-79
2021/01/16 00:35:51;;;;;;;2.58;1.30;;;-0.50;99.90;;;;;;4987303;28;20206;-80
2021/01/16 00:38:18;;;;;;;4.53;2.55;;;-0.50;99.90;;;;;;4984990;28;20171;-79
2021/01/16 00:40:44;;;;;;;5.57;1.60;;;-0.50;99.90;;;;;;4984567;28;20243;-80
2021/01/16 00:43:14;;;;;;;1.97;1.77;;;-0.20;99.90;;;;;;4986228;28;20246;-80
2021/01/16 00:45:50;;;;;;;2.83;2.00;;;0.00;99.90;;;;;;4969498;28;20209;-80
2021/01/16 00:48:24;;;;;;;2.05;1.60;;;0.00;99.90;;;;;;4966766;28;20217;-79
2021/01/16 00:50:55;;;;;;;2.58;1.60;;;0.00;99.90;;;;;;4968516;28;20179;-80
2021/01/16 00:53:21;;;;;;;2.60;1.60;;;0.10;99.90;;;;;;4985333;28;20167;-80
2021/01/16 00:55:47;;;;;;;3.95;1.95;;;0.20;99.90;;;;;;4966862;28;20202;-79
2021/01/16 00:58:20;;;;;;;3.77;1.60;;;0.20;99.90;;;;;;4978021;28;20197;-80
2021/01/16 01:00:48;;;;;;;2.70;1.60;;;0.30;99.90;;;;;;4979474;28;20472;-79
2021/01/16 01:03:22;;;;;;;3.58;1.52;;;0.40;99.90;;;;;;5001381;28;20171;-80
2021/01/16 01:05:48;;;;;;;2.58;1.63;;;0.50;99.90;;;;;;4965326;28;20205;-80
2021/01/16 01:08:14;;;;;;;2.40;1.60;;;0.10;99.90;;;;;;4986371;28;20301;-81
2021/01/16 01:10:45;;;;;;;4.05;2.58;;;0.20;99.90;;;;;;5005425;28;20182;-80
2021/01/16 01:13:12;;;;;;;1.88;1.20;;;0.30;99.90;;;;;;4971340;28;20175;-81
2021/01/16 01:15:38;;;;;;;2.13;1.38;;;0.30;99.90;;;;;;4970327;28;20191;-80
2021/01/16 01:18:07;;;;;;;5.43;1.50;;;0.20;99.90;;;;;;4985373;28;20175;-80
2021/01/16 01:20:33;;;;;;;2.85;1.83;;;-0.10;99.90;;;;;;4986188;28;20714;-80
2021/01/16 01:23:02;;;;;;;2.20;1.57;;;-0.10;99.90;;;;;;5002971;28;20187;-79
2021/01/16 01:25:29;;;;;;;4.05;2.35;;;-0.20;99.90;;;;;;5003554;28;20453;-80
2021/01/16 01:27:57;;;;;;;3.92;2.28;;;0.10;99.90;;;;;;4985458;28;20674;-81
2021/01/16 01:30:25;;;;;;;2.38;1.92;;;0.00;99.90;;;;;;4989405;28;20179;-81
2021/01/16 01:32:52;;;;;;;2.28;1.80;;;0.20;99.90;;;;;;4978344;28;20178;-81
2021/01/16 01:35:19;;;;;;;1.60;1.38;;;0.40;99.90;;;;;;5002014;28;20199;-81
2021/01/16 01:37:47;;;;;;;4.18;3.03;;;0.60;99.90;;;;;;5001957;28;20174;-81
2021/01/16 01:40:15;;;;;;;1.80;1.65;;;0.60;99.90;;;;;;4982134;28;20198;-81
2021/01/16 01:42:41;;;;;;;3.10;1.67;;;0.70;99.90;;;;;;4988647;28;20175;-81
2021/01/16 01:45:10;;;;;;;4.07;2.10;;;0.70;99.90;;;;;;4969874;28;20429;-81
2021/01/16 01:47:37;;;;;;;2.67;1.85;;;0.70;99.90;;;;;;4986828;28;20206;-81
2021/01/16 01:50:06;;;;;;;4.80;1.88;;;0.70;99.90;;;;;;4971972;28;20175;-80
2021/01/16 01:52:33;;;;;;;4.75;2.08;;;0.70;99.90;;;;;;4985966;28;20198;-82
2021/01/16 01:54:59;;;;;;;3.55;2.95;;;0.80;99.90;;;;;;4989714;28;20205;-82
2021/01/16 01:57:26;;;;;;;1.77;1.67;;;0.80;99.90;;;;;;4992701;28;20175;-82
2021/01/16 01:59:54;;;;;;;3.88;2.35;;;0.80;99.90;;;;;;4976936;28;20205;-81
2021/01/16 02:02:20;;;;;;;3.67;2.00;;;0.80;99.90;;;;;;4992520;28;20171;-81
2021/01/16 02:04:49;;;;;;;3.50;2.17;;;0.80;99.90;;;;;;4991603;28;20210;-82
2021/01/16 02:07:26;;;;;;;2.95;2.53;;;0.80;99.90;;;;;;5008089;28;20194;-81
2021/01/16 02:09:54;;;;;;;4.60;2.38;;;0.80;99.90;;;;;;4975912;28;20180;-81
2021/01/16 02:12:20;;;;;;;2.80;2.00;;;0.90;99.90;;;;;;4976127;28;20187;-81
2021/01/16 02:14:54;;;;;;;4.68;2.55;;;0.90;99.90;;;;;;4976389;28;20213;-81
2021/01/16 02:17:25;;;;;;;4.25;2.65;;;0.70;99.90;;;;;;4991399;28;20185;-80
2021/01/16 02:20:10;;;;;;;3.75;2.05;;;0.70;99.90;;;;;;4991433;28;20179;-81
2021/01/16 02:23:05;;;;;;;5.82;2.67;;;0.80;99.90;;;;;;4991662;28;20179;-81
2021/01/16 02:25:39;;;;;;;4.22;2.05;;;0.90;99.90;;;;;;4992268;28;20207;-81
2021/01/16 02:28:09;;;;;;;2.92;2.00;;;0.80;99.90;;;;;;4991226;28;20206;-81
2021/01/16 02:30:39;;;;;;;6.78;3.17;;;0.90;99.90;;;;;;4993484;28;20174;-82
2021/01/16 02:33:08;;;;;;;5.20;2.35;;;0.80;99.90;;;;;;4978324;28;20237;-81
2021/01/16 02:35:37;;;;;;;4.07;2.45;;;0.80;99.90;;;;;;4992614;28;20195;-81
2021/01/16 02:38:11;;;;;;;4.15;2.85;;;0.70;99.90;;;;;;4988838;28;20174;-81
2021/01/16 02:40:46;;;;;;;6.10;2.35;;;0.60;99.90;;;;;;5006449;28;20166;-81
2021/01/16 02:43:11;;;;;;;3.83;2.17;;;0.70;99.90;;;;;;5006210;28;20171;-81
2021/01/16 02:46:15;;;;;;;9.23;3.60;;;0.80;99.90;;;;;;4988927;28;20198;-80
2021/01/16 02:48:49;;;;;;;5.97;2.00;;;0.80;99.90;;;;;;4988770;28;20178;-80
2021/01/16 02:51:28;;;;;;;3.47;2.00;;;0.70;99.90;;;;;;5001355;28;20170;-80
2021/01/16 02:53:54;;;;;;;5.25;2.30;;;0.70;99.90;;;;;;4983991;28;20178;-80
2021/01/16 02:56:36;;;;;;;3.50;2.73;;;0.80;99.90;;;;;;4984928;28;20198;-81
2021/01/16 02:59:04;;;;;;;4.90;3.05;;;0.50;99.90;;;;;;4988036;28;20406;-81
2021/01/16 03:01:29;;;;;;;5.72;2.50;;;0.60;99.90;;;;;;4983347;28;20258;-81
2021/01/16 03:03:55;;;;;;;3.00;2.20;;;0.70;99.90;;;;;;5002118;28;20190;-80
2021/01/16 03:06:21;;;;;;;8.57;3.67;;;0.70;99.90;;;;;;5003829;28;20215;-81
2021/01/16 03:08:47;;;;;;;5.00;2.50;;;0.70;99.90;;;;;;4974211;28;20200;-81
2021/01/16 03:11:15;;;;;;;5.63;2.30;;;0.70;99.90;;;;;;4973041;28;20925;-81
2021/01/16 03:13:42;;;;;;;3.72;2.03;;;0.80;99.90;;;;;;5007343;28;20402;-81
2021/01/16 03:16:13;;;;;;;3.78;2.35;;;0.90;99.90;;;;;;4973733;28;20195;-82
2021/01/16 03:18:43;;;;;;;2.65;1.65;;;0.80;99.90;;;;;;4991612;28;20174;-81
2021/01/16 03:21:09;;;;;;;5.32;2.80;;;0.80;99.90;;;;;;4974851;28;20171;-81
2021/01/16 03:23:35;;;;;;;4.30;2.23;;;0.80;99.90;;;;;;4990346;28;20175;-82
2021/01/16 03:26:01;;;;;;;2.75;1.75;;;0.80;99.90;;;;;;4990005;28;20461;-81
2021/01/16 03:28:27;;;;;;;2.73;1.70;;;0.60;99.90;;;;;;4974504;28;20202;-81
2021/01/16 03:30:52;;;;;;;3.20;2.10;;;0.50;99.90;;;;;;4991142;28;20166;-81
2021/01/16 03:33:18;;;;;;;3.93;2.73;;;0.60;99.90;;;;;;4991332;28;20593;-81
2021/01/16 03:35:44;;;;;;;4.57;2.40;;;0.60;99.90;;;;;;4976173;28;20724;-81
2021/01/16 03:38:09;;;;;;;5.03;2.20;;;0.50;99.90;;;;;;4976519;28;20426;-80
2021/01/16 03:40:35;;;;;;;1.93;1.70;;;0.70;99.90;;;;;;4989791;28;20182;-81
2021/01/16 03:43:01;;;;;;;3.43;1.50;;;0.60;99.90;;;;;;4987907;28;20190;-82
2021/01/16 03:45:26;;;;;;;9.23;2.37;;;0.80;99.90;;;;;;4971939;28;20203;-82
2021/01/16 03:47:52;;;;;;;4.77;2.53;;;0.80;99.90;;;;;;4988966;28;20210;-81
2021/01/16 03:50:18;;;;;;;7.00;3.63;;;0.80;99.90;;;;;;4986287;28;20248;-82
2021/01/16 03:52:43;;;;;;;3.70;2.00;;;0.90;99.90;;;;;;4985641;28;20181;-81
2021/01/16 03:55:10;;;;;;;4.43;2.23;;;0.90;99.90;;;;;;4985362;28;20358;-81
2021/01/16 03:57:36;;;;;;;4.00;2.50;;;0.80;99.90;;;;;;4968966;28;20417;-82
2021/01/16 04:00:05;;;;;;;3.10;2.20;;;0.80;99.90;;;;;;4985706;28;20665;-81
2021/01/16 04:02:31;;;;;;;3.95;2.10;;;0.80;99.90;;;;;;4985295;28;20422;-81
2021/01/16 04:04:56;;;;;;;4.97;2.63;;;0.90;99.90;;;;;;4970546;28;20207;-81
2021/01/16 04:07:22;;;;;;;3.57;2.47;;;0.90;99.90;;;;;;4987155;28;20222;-81
2021/01/16 04:09:47;;;;;;;3.97;2.93;;;1.00;99.90;;;;;;4986571;28;20175;-80
2021/01/16 04:12:13;;;;;;;5.30;3.10;;;1.00;99.90;;;;;;4986283;28;20179;-80
2021/01/16 04:14:40;;;;;;;6.27;4.20;;;1.00;99.90;;;;;;4988286;28;20232;-80
2021/01/16 04:17:07;;;;;;;3.92;2.58;;;1.00;99.90;;;;;;4988851;28;20183;-80
2021/01/16 04:19:33;;;;;;;5.45;2.25;;;0.90;99.90;;;;;;4973937;28;20229;-81
2021/01/16 04:22:00;;;;;;;5.80;3.42;;;0.90;99.90;;;;;;4989752;28;20186;-81
2021/01/16 04:24:26;;;;;;;2.92;2.10;;;0.90;99.90;;;;;;5007608;28;20206;-81
2021/01/16 04:26:52;;;;;;;6.80;2.67;;;0.70;99.90;;;;;;4989134;28;20202;-80
2021/01/16 04:29:17;;;;;;;3.83;2.90;;;0.70;99.90;;;;;;5007188;28;20851;-80
2021/01/16 04:31:43;;;;;;;6.50;3.10;;;0.70;99.90;;;;;;5007251;28;20853;-80
2021/01/16 04:34:10;;;;;;;4.20;2.70;;;0.80;99.90;;;;;;4990661;28;20407;-80
2021/01/16 04:36:35;;;;;;;4.22;3.00;;;0.90;99.90;;;;;;4988617;28;20247;-81
2021/01/16 04:39:01;;;;;;;4.97;2.73;;;0.90;99.90;;;;;;4975514;28;20178;-82
2021/01/16 04:41:30;;;;;;;5.53;2.22;;;0.90;99.90;;;;;;4995822;28;20242;-81
2021/01/16 04:44:00;;;;;;;4.05;2.45;;;0.90;99.90;;;;;;4972406;28;20659;-80
2021/01/16 04:46:26;;;;;;;4.60;2.88;;;0.90;99.90;;;;;;4971849;28;20210;-80
2021/01/16 04:49:03;;;;;;;10.07;3.65;;;1.00;99.90;;;;;;4971761;28;20171;-80
2021/01/16 04:51:34;;;;;;;6.18;2.80;;;0.90;99.90;;;;;;4972587;28;20181;-81
2021/01/16 04:54:01;;;;;;;5.45;2.92;;;1.00;99.90;;;;;;4987560;28;20643;-81
2021/01/16 04:56:34;;;;;;;5.30;2.60;;;1.00;99.90;;;;;;4970327;28;20666;-81
2021/01/16 04:59:00;;;;;;;2.75;2.10;;;0.90;99.90;;;;;;4985942;28;20163;-81
2021/01/16 05:01:27;;;;;;;6.55;3.25;;;1.00;99.90;;;;;;4967055;28;20211;-81
2021/01/16 05:03:56;;;;;;;3.20;2.33;;;0.90;99.90;;;;;;4965982;28;20199;-81
2021/01/16 05:06:25;;;;;;;7.28;3.30;;;0.80;99.90;;;;;;4975051;28;20191;-81
2021/01/16 05:08:53;;;;;;;3.95;2.70;;;0.60;99.90;;;;;;4995315;28;20178;-81
2021/01/16 05:11:25;;;;;;;3.95;2.72;;;0.70;99.90;;;;;;4989954;28;20179;-82
2021/01/16 05:14:17;;;;;;;5.30;2.22;;;0.80;99.90;;;;;;5008861;28;20175;-81
2021/01/16 05:16:56;;;;;;;5.72;2.90;;;0.90;99.90;;;;;;4994563;28;20183;-82
2021/01/16 05:19:24;;;;;;;4.30;2.83;;;1.00;99.90;;;;;;5019590;28;20167;-82
2021/01/16 05:21:50;;;;;;;3.53;2.30;;;1.00;99.90;;;;;;5000494;28;20170;-81
2021/01/16 05:24:16;;;;;;;6.93;2.60;;;1.10;99.90;;;;;;4974350;28;20174;-82
2021/01/16 05:27:05;;;;;;;5.50;3.10;;;1.00;99.90;;;;;;4988924;28;20493;-82
2021/01/16 05:29:33;;;;;;;5.13;2.85;;;1.10;99.90;;;;;;5007390;28;20215;-82
2021/01/16 05:32:02;;;;;;;4.65;3.22;;;1.10;99.90;;;;;;4988767;28;20191;-82
2021/01/16 05:34:30;;;;;;;3.90;2.60;;;1.10;99.90;;;;;;4988398;28;20202;-81
2021/01/16 05:36:56;;;;;;;4.72;3.20;;;1.00;99.90;;;;;;4989759;28;20602;-81
2021/01/16 05:39:31;;;;;;;5.22;2.47;;;1.10;99.90;;;;;;5007086;28;20171;-81
2021/01/16 05:42:06;;;;;;;7.93;2.78;;;1.10;99.90;;;;;;5008035;28;20170;-81
2021/01/16 05:44:35;;;;;;;8.73;3.35;;;1.10;99.90;;;;;;4992473;28;20372;-81
2021/01/16 05:47:00;;;;;;;4.45;3.38;;;1.20;99.90;;;;;;4977137;28;20273;-81
2021/01/16 05:49:27;;;;;;;5.07;3.10;;;1.10;99.90;;;;;;4973089;28;20244;-81
2021/01/16 05:51:53;;;;;;;3.38;2.50;;;1.00;99.90;;;;;;4990460;28;20202;-81
2021/01/16 05:54:20;;;;;;;3.30;2.40;;;0.80;99.90;;;;;;4969417;28;20178;-80
2021/01/16 05:56:48;;;;;;;4.75;2.50;;;0.90;99.90;;;;;;4984710;28;20289;-81
2021/01/16 05:59:19;;;;;;;5.47;3.30;;;0.80;99.90;;;;;;4985139;28;20685;-81
2021/01/16 06:01:50;;;;;;;3.40;2.30;;;0.90;99.90;;;;;;4970671;28;20183;-82
2021/01/16 06:04:18;;;;;;;6.13;3.85;;;0.80;99.90;;;;;;4997066;28;20214;-82
2021/01/16 06:06:43;;;;;;;5.00;2.40;;;0.90;99.90;;;;;;4975042;28;20209;-82
2021/01/16 06:09:18;;;;;;;17.83;3.30;;;1.00;99.90;;;;;;4989092;28;20171;-82
2021/01/16 06:11:50;;;;;;;6.18;3.40;;;0.90;99.90;;;;;;4990356;28;20432;-82
2021/01/16 06:14:16;;;;;;;6.47;3.45;;;1.00;99.90;;;;;;4974578;28;20201;-82
2021/01/16 06:16:46;;;;;;;3.70;2.70;;;1.10;99.90;;;;;;4989712;28;20178;-82
2021/01/16 06:19:17;;;;;;;5.03;3.10;;;1.10;99.90;;;;;;4991221;28;20175;-82
2021/01/16 06:21:43;;;;;;;7.53;3.65;;;1.20;99.90;;;;;;4974321;28;20178;-82
2021/01/16 06:24:14;;;;;;;8.63;3.53;;;1.20;99.90;;;;;;4990816;28;20213;-82
2021/01/16 06:26:42;;;;;;;7.32;4.38;;;1.20;99.90;;;;;;4989863;28;20466;-79
2021/01/16 06:29:24;;;;;;;5.10;4.32;;;1.10;99.90;;;;;;4989712;28;20725;-81
2021/01/16 06:31:50;;;;;;;10.52;4.35;;;1.00;99.90;;;;;;5006701;28;20662;-81
2021/01/16 06:34:29;;;;;;;3.55;2.60;;;1.10;99.90;;;;;;5007838;28;20206;-82
2021/01/16 06:37:13;;;;;;;4.68;3.33;;;1.20;99.90;;;;;;4989640;28;20189;-82
2021/01/16 06:39:44;;;;;;;10.00;5.28;;;1.20;99.90;;;;;;4991635;28;20194;-81
2021/01/16 06:42:20;;;;;;;7.85;4.50;;;1.30;99.90;;;;;;4973179;28;20198;-80
2021/01/16 06:45:01;;;;;;;4.75;3.10;;;1.30;99.90;;;;;;4956147;28;20203;-80
2021/01/16 06:47:27;;;;;;;3.80;2.63;;;1.20;99.90;;;;;;4975241;28;20207;-81
2021/01/16 06:50:00;;;;;;;7.97;3.10;;;1.20;99.90;;;;;;4977556;28;20557;-81
2021/01/16 06:52:52;;;;;;;5.05;3.05;;;1.20;99.90;;;;;;4984753;28;20182;-81
2021/01/16 06:55:19;;;;;;;9.35;4.57;;;1.30;99.90;;;;;;4946971;28;20207;-81
2021/01/16 06:57:46;;;;;;;5.22;3.50;;;1.20;99.90;;;;;;4985601;28;20614;-82
2021/01/16 07:00:13;;;;;;;8.10;3.83;;;1.30;99.90;;;;;;4984909;28;20179;-82
2021/01/16 07:02:40;;;;;;;7.28;3.80;;;1.40;99.90;;;;;;4985457;28;20185;-81
2021/01/16 07:05:21;;;;;;;4.78;3.58;;;1.50;99.90;;;;;;4985031;28;20206;-79
2021/01/16 07:07:51;;;;;;;6.20;3.10;;;1.40;99.90;;;;;;4984031;28;20226;-80
2021/01/16 07:10:30;;;;;;;5.50;2.80;;;1.50;99.90;;;;;;4968804;28;20190;-79
2021/01/16 07:12:59;;;;;;;5.35;3.40;;;1.50;99.90;;;;;;4968048;28;20213;-79
2021/01/16 07:15:31;;;;;;;6.20;4.00;;;1.40;99.90;;;;;;4983985;28;20229;-79
2021/01/16 07:18:00;;;;;;;6.60;3.28;;;1.40;99.90;;;;;;4967753;28;20210;-79
2021/01/16 07:20:26;;;;;;;4.22;3.25;;;1.50;99.90;;;;;;4983252;28;20697;-82
2021/01/16 07:22:53;;;;;;;9.07;3.97;;;1.40;99.90;;;;;;5001360;28;20833;-80
2021/01/16 07:25:20;;;;;;;9.25;4.00;;;1.40;99.90;;;;;;4967723;28;20207;-81
2021/01/16 07:27:47;;;;;;;5.55;3.25;;;1.40;99.90;;;;;;4969425;28;20583;-81
2021/01/16 07:30:14;;;;;;;7.72;3.92;;;1.40;99.90;;;;;;5000918;28;20166;-80
2021/01/16 07:32:50;;;;;;;6.30;3.33;;;1.30;99.90;;;;;;4981116;28;20190;-79
2021/01/16 07:35:20;;;;;;;8.30;4.60;;;1.40;99.90;;;;;;4986469;28;20208;-79
2021/01/16 07:37:48;;;;;;;2.95;2.40;;;1.40;99.90;;;;;;4967353;28;20208;-80
2021/01/16 07:40:22;;;;;;;8.30;4.68;;;1.50;99.90;;;;;;4966138;28;20190;-79
2021/01/16 07:42:55;;;;;;;8.70;4.80;;;1.50;99.90;;;;;;4988443;28;20178;-80
2021/01/16 07:45:28;;;;;;;9.75;4.15;;;1.50;99.90;;;;;;4971399;28;20199;-80
2021/01/16 07:48:06;;;;;;;7.22;3.95;;;1.60;99.90;;;;;;4989644;28;20217;-80
2021/01/16 07:50:39;;;;;;;8.18;4.00;;;1.60;99.90;;;;;;4962746;28;20172;-80
2021/01/16 07:53:07;;;;;;;9.25;3.20;;;1.60;99.90;;;;;;4980545;28;20171;-80
2021/01/16 07:55:46;;;;;;;10.82;4.53;;;1.60;99.90;;;;;;4977014;28;20255;-81
2021/01/16 07:58:31;;;;;;;7.63;4.15;;;1.50;99.90;;;;;;4989604;28;20185;-81
2021/01/16 08:01:01;;;;;;;7.47;4.50;;;1.10;99.90;;;;;;4993839;28;20517;-80
2021/01/16 08:03:56;;;;;;;5.68;3.72;;;0.90;99.90;;;;;;4989313;28;20255;-82
2021/01/16 08:06:31;;;;;;;8.68;4.78;;;1.10;99.90;;;;;;4965068;28;20322;-80
2021/01/16 08:09:19;;;;;;;8.85;4.32;;;1.20;99.90;;;;;;4984699;28;20182;-78
2021/01/16 08:11:51;;;;;;;9.82;5.35;;;1.20;99.90;;;;;;5001228;28;20186;-77
2021/01/16 08:14:21;;;;;;;12.25;4.53;;;1.30;99.90;;;;;;5004715;28;20646;-80
2021/01/16 08:17:00;;;;;;;4.63;3.08;;;1.40;99.90;;;;;;5005516;28;20178;-80
2021/01/16 08:19:48;;;;;;;6.05;4.05;;;1.40;99.90;;;;;;5005575;28;20201;-80
2021/01/16 08:22:18;;;;;;;17.20;3.83;;;1.50;99.90;;;;;;4991217;28;20456;-80
2021/01/16 08:25:02;;;;;;;8.60;4.97;;;1.50;99.90;;;;;;4989973;28;20249;-78
2021/01/16 08:27:47;;;;;;;7.43;4.68;;;1.50;99.90;;;;;;5005833;28;20200;-79
2021/01/16 08:30:16;;;;;;;7.45;4.80;;;1.60;99.90;;;;;;5004108;28;20174;-80
2021/01/16 08:33:07;;;;;;;7.82;4.60;;;2.00;99.90;;;;;;5008354;28;20182;-80
2021/01/16 08:35:53;;;;;;;10.32;5.55;;;2.20;99.90;;;;;;5006965;28;20266;-79
2021/01/16 08:38:19;;;;;;;13.02;5.40;;;2.20;99.90;;;;;;5006045;28;20206;-82
2021/01/16 08:41:17;;;;;;;9.20;5.10;;;2.50;99.90;;;;;;4991268;28;20167;-82
2021/01/16 08:43:44;;;;;;;10.52;4.15;;;2.60;99.90;;;;;;5008714;28;20181;-82
2021/01/16 08:46:11;;;;;;;7.88;4.68;;;2.30;99.90;;;;;;4994577;28;20210;-82
2021/01/16 08:48:40;;;;;;;9.27;4.70;;;2.30;99.90;;;;;;4992898;28;20206;-81
2021/01/16 08:51:28;;;;;;;6.80;4.32;;;2.20;99.90;;;;;;4987396;28;20189;-79
2021/01/16 08:54:15;;;;;;;9.18;5.25;;;2.40;99.90;;;;;;4988410;28;20178;-80
2021/01/16 08:56:51;;;;;;;5.53;4.07;;;2.20;99.90;;;;;;4973371;28;20209;-80
2021/01/16 08:59:28;;;;;;;7.68;5.13;;;2.10;99.90;;;;;;4985421;28;20175;-80
2021/01/16 09:02:11;;;;;;;9.82;5.50;;;2.30;99.90;;;;;;4997204;28;20198;-80
2021/01/16 09:04:39;;;;;;;12.18;5.95;;;2.40;99.90;;;;;;5011738;28;20190;-81
2021/01/16 09:07:14;;;;;;;8.90;5.22;;;2.50;99.90;;;;;;4976961;28;20218;-80
2021/01/16 09:09:40;;;;;;;9.45;4.82;;;2.50;99.90;;;;;;5007412;28;20244;-80
2021/01/16 09:12:12;;;;;;;10.98;4.50;;;2.50;99.90;;;;;;4992055;28;20170;-81
2021/01/16 09:14:40;;;;;;;10.73;5.28;;;2.50;99.90;;;;;;4987926;28;20195;-81
2021/01/16 09:17:25;;;;;;;12.55;5.18;;;2.60;99.90;;;;;;4992779;28;20179;-81
2021/01/16 09:19:56;;;;;;;9.63;5.10;;;2.40;99.90;;;;;;4989632;28;20182;-80
2021/01/16 09:22:28;;;;;;;8.10;5.25;;;2.40;99.90;;;;;;4986355;28;20171;-80
2021/01/16 09:25:20;;;;;;;8.77;5.13;;;2.40;99.90;;;;;;5005041;28;20250;-80
2021/01/16 09:27:47;;;;;;;6.85;4.35;;;2.60;99.90;;;;;;4988851;28;20293;-79
2021/01/16 09:30:25;;;;;;;7.30;4.82;;;2.60;99.90;;;;;;4976352;28;20243;-80
2021/01/16 09:32:51;;;;;;;11.23;4.90;;;2.60;99.90;;;;;;5004655;28;20183;-82
2021/01/16 09:35:37;;;;;;;6.95;4.88;;;2.70;99.90;;;;;;4971620;28;20785;-80
2021/01/16 09:38:13;;;;;;;9.23;4.57;;;2.70;99.90;;;;;;5003872;28;20210;-83
2021/01/16 09:40:39;;;;;;;8.75;5.25;;;3.30;99.90;;;;;;5001819;28;20182;-79
2021/01/16 09:43:25;;;;;;;7.33;5.53;;;3.30;99.90;;;;;;4970174;28;20197;-81
2021/01/16 09:45:53;;;;;;;8.60;5.55;;;3.00;99.90;;;;;;4987276;28;20452;-82
2021/01/16 09:48:37;;;;;;;9.48;5.97;;;2.60;99.90;;;;;;5000513;28;20194;-83
2021/01/16 09:51:04;;;;;;;8.63;4.72;;;2.60;99.90;;;;;;4975352;28;20284;-81
2021/01/16 09:53:31;;;;;;;9.80;5.15;;;2.40;99.90;;;;;;4999718;28;20166;-81
2021/01/16 09:55:57;;;;;;;9.60;4.55;;;2.20;99.90;;;;;;4983412;28;20210;-82
2021/01/16 09:58:35;;;;;;;6.03;3.95;;;2.10;99.90;;;;;;4999433;28;20183;-81
2021/01/16 10:01:22;;;;;;;8.43;5.78;;;2.10;99.90;;;;;;4975234;28;20171;-80
2021/01/16 10:03:55;;;;;;;5.97;3.78;;;2.20;99.90;;;;;;5002289;28;20197;-84
2021/01/16 10:06:30;;;;;;;9.20;4.85;;;2.10;99.90;;;;;;5006249;28;20218;-85
2021/01/16 10:08:57;;;;;;;12.10;5.10;;;2.10;99.90;;;;;;4988749;28;20186;-79
2021/01/16 10:11:43;;;;;;;7.00;4.20;;;2.20;99.90;;;;;;5003791;28;20167;-80
2021/01/16 10:14:16;;;;;;;12.13;5.97;;;2.10;99.90;;;;;;4986714;28;20441;-80
2021/01/16 10:16:45;;;;;;;7.03;4.85;;;2.00;99.90;;;;;;4985979;28;20186;-81
2021/01/16 10:19:14;;;;;;;10.25;5.90;;;2.00;99.90;;;;;;4984104;28;20383;-81
2021/01/16 10:21:57;;;;;;;8.82;4.90;;;2.00;99.90;;;;;;5003022;28;20183;-81
2021/01/16 10:24:25;;;;;;;7.15;4.13;;;2.00;99.90;;;;;;4968957;28;20281;-81
2021/01/16 10:26:51;;;;;;;9.25;4.50;;;2.10;99.90;;;;;;4983337;28;20274;-81
2021/01/16 10:29:40;;;;;;;6.35;3.80;;;2.10;99.90;;;;;;4966479;28;20210;-81
2021/01/16 10:32:20;;;;;;;10.95;5.25;;;2.30;99.90;;;;;;4993791;28;20792;-81
2021/01/16 10:34:46;;;;;;;6.05;4.43;;;2.30;99.90;;;;;;4986878;28;20570;-81
2021/01/16 10:37:12;;;;;;;9.48;4.90;;;2.50;99.90;;;;;;4984194;28;20183;-81
2021/01/16 10:39:39;;;;;;;8.32;4.47;;;2.40;99.90;;;;;;4984409;28;20270;-83
2021/01/16 10:42:12;;;;;;;7.32;5.20;;;2.50;99.90;;;;;;4985532;28;20205;-82
2021/01/16 10:44:40;;;;;;;8.27;4.63;;;2.30;99.90;;;;;;5002846;28;20190;-82
2021/01/16 10:47:37;;;;;;;6.05;4.85;;;2.20;99.90;;;;;;5003346;28;20264;-81
2021/01/16 10:50:05;;;;;;;8.70;4.35;;;2.30;99.90;;;;;;4981402;28;20297;-82
2021/01/16 10:52:31;;;;;;;7.90;4.32;;;2.10;99.90;;;;;;4990454;28;20178;-82
2021/01/16 10:55:02;;;;;;;8.10;4.68;;;2.10;99.90;;;;;;4987088;28;20214;-81
2021/01/16 10:57:51;;;;;;;6.90;4.75;;;2.20;99.90;;;;;;4987136;28;20278;-81
2021/01/16 11:00:18;;;;;;;8.70;4.28;;;2.10;99.90;;;;;;5000880;28;20188;-81
2021/01/16 11:02:49;;;;;;;10.10;5.65;;;2.10;99.90;;;;;;4985214;28;20569;-81
2021/01/16 11:05:24;;;;;;;5.25;3.65;;;1.80;99.90;;;;;;5000981;28;20558;-81
2021/01/16 11:07:51;;;;;;;10.88;5.50;;;1.80;99.90;;;;;;4984869;28;20190;-81
2021/01/16 11:10:29;;;;;;;8.77;4.38;;;1.70;99.90;;;;;;5003907;28;20182;-82
2021/01/16 11:12:55;;;;;;;14.40;9.02;;;1.90;99.90;;;;;;4998865;28;20162;-81
2021/01/16 11:15:26;;;;;;;6.87;3.90;;;2.30;99.90;;;;;;4980926;28;20206;-82
2021/01/16 11:17:59;;;;;;;10.35;4.22;;;2.30;99.90;;;;;;5002927;28;20413;-82
2021/01/16 11:20:49;;;;;;;13.02;6.25;;;2.40;99.90;;;;;;4970861;28;20190;-82
2021/01/16 11:23:31;;;;;;;10.43;5.85;;;2.40;99.90;;;;;;4985358;28;20269;-84
2021/01/16 11:26:04;;;;;;;10.25;4.60;;;2.50;99.90;;;;;;4986982;28;20233;-82
2021/01/16 11:28:49;;;;;;;5.45;4.13;;;2.40;99.90;;;;;;5003611;28;20246;-82
2021/01/16 11:31:34;;;;;;;13.30;4.30;;;2.40;99.90;;;;;;4987967;28;20650;-79
2021/01/16 11:34:09;;;;;;;7.68;4.30;;;2.20;99.90;;;;;;4979610;28;20412;-83
2021/01/16 11:36:56;;;;;;;7.80;5.03;;;2.30;99.90;;;;;;4989595;28;20201;-82
2021/01/16 11:39:51;;;;;;;6.13;3.75;;;2.40;99.90;;;;;;5022737;28;20155;-81
2021/01/16 11:42:21;;;;;;;9.48;4.78;;;2.60;99.90;;;;;;4984078;28;20168;-82
2021/01/16 11:44:56;;;;;;;6.20;4.90;;;2.60;99.90;;;;;;4951912;28;20209;-81
2021/01/16 11:47:27;;;;;;;8.90;4.32;;;2.60;99.90;;;;;;4984907;28;20198;-81
2021/01/16 11:49:59;;;;;;;6.53;4.25;;;2.60;99.90;;;;;;4983094;28;20175;-83
2021/01/16 11:52:26;;;;;;;6.85;5.20;;;2.70;99.90;;;;;;4988596;28;20637;-81
2021/01/16 11:54:54;;;;;;;11.20;4.82;;;2.40;99.90;;;;;;5002455;28;20186;-81
2021/01/16 11:57:25;;;;;;;12.90;4.93;;;2.40;99.90;;;;;;4983610;28;20576;-79
2021/01/16 11:59:55;;;;;;;8.35;4.57;;;2.40;99.90;;;;;;4966506;28;20555;-82
2021/01/16 12:02:22;;;;;;;7.32;3.50;;;2.30;99.90;;;;;;4985040;28;20251;-82
2021/01/16 12:04:48;;;;;;;5.93;3.83;;;2.40;99.90;;;;;;4999424;28;20666;-82
2021/01/16 12:07:18;;;;;;;7.25;4.63;;;2.20;99.90;;;;;;4984744;28;20230;-83
2021/01/16 12:09:45;;;;;;;5.00;3.83;;;2.20;99.90;;;;;;4981976;28;20175;-83
2021/01/16 12:12:12;;;;;;;5.85;3.50;;;2.40;99.90;;;;;;4986733;28;20179;-81
2021/01/16 12:14:40;;;;;;;7.18;4.22;;;2.40;99.90;;;;;;5007659;28;20191;-83
2021/01/16 12:17:11;;;;;;;7.18;3.65;;;2.20;99.90;;;;;;4983635;28;20201;-83
2021/01/16 12:19:38;;;;;;;7.38;4.60;;;2.20;99.90;;;;;;4981536;28;20278;-81
2021/01/16 12:22:13;;;;;;;6.90;4.20;;;2.30;99.90;;;;;;4988566;28;20242;-82
2021/01/16 12:24:39;;;;;;;9.30;4.43;;;2.30;99.90;;;;;;4969228;28;20586;-82
2021/01/16 12:27:06;;;;;;;9.40;4.33;;;2.00;99.90;;;;;;4979102;28;20210;-82
2021/01/16 12:29:38;;;;;;;6.40;4.78;;;2.20;99.90;;;;;;4993519;28;20225;-83
2021/01/16 12:32:14;;;;;;;7.05;4.03;;;2.20;99.90;;;;;;4997449;28;20181;-81
2021/01/16 12:34:45;;;;;;;8.57;4.07;;;2.20;99.90;;;;;;4970361;28;20198;-83
2021/01/16 12:37:12;;;;;;;6.88;3.75;;;1.90;99.90;;;;;;4986763;28;20195;-82
2021/01/16 12:39:38;;;;;;;7.85;4.10;;;1.80;99.90;;;;;;4960826;28;20195;-81
2021/01/16 12:42:05;;;;;;;8.15;4.00;;;2.10;99.90;;;;;;4984447;28;20197;-80
2021/01/16 12:44:30;;;;;;;5.55;4.10;;;2.10;99.90;;;;;;4994214;28;20190;-79
2021/01/16 12:46:56;;;;;;;7.20;4.37;;;2.30;99.90;;;;;;4994455;28;20265;-79
2021/01/16 12:49:22;;;;;;;9.68;4.78;;;2.40;99.90;;;;;;4985737;28;20179;-80
2021/01/16 12:51:49;;;;;;;6.88;3.80;;;2.30;99.90;;;;;;5000647;28;20218;-81
2021/01/16 12:54:16;;;;;;;6.50;4.43;;;2.30;99.90;;;;;;5000826;28;20179;-81
2021/01/16 12:56:43;;;;;;;8.48;5.25;;;2.30;99.90;;;;;;4983993;28;20171;-81
2021/01/16 12:59:17;;;;;;;4.43;3.33;;;2.10;99.90;;;;;;4985050;28;20257;-80
2021/01/16 13:01:52;;;;;;;6.18;3.38;;;2.10;99.90;;;;;;4984378;28;20218;-80
2021/01/16 13:04:19;;;;;;;6.20;3.15;;;2.10;99.90;;;;;;4964447;28;20175;-81
2021/01/16 13:06:47;;;;;;;4.30;2.97;;;1.90;99.90;;;;;;4982210;28;20573;-81
2021/01/16 13:09:15;;;;;;;9.80;3.67;;;1.90;99.90;;;;;;4982211;28;20233;-80
2021/01/16 13:11:46;;;;;;;4.53;2.97;;;1.70;99.90;;;;;;4982312;28;20193;-80
2021/01/16 13:14:12;;;;;;;8.40;3.05;;;1.80;99.90;;;;;;4983724;28;20170;-80
2021/01/16 13:16:49;;;;;;;7.03;3.50;;;1.60;99.90;;;;;;4986110;28;20175;-79